Time;durP1;ratioP1;P1;durP2;ratioP2;P2;SDS_P1;SDS_P2;PMS_P1;PMS_P2;Temp;Humidity;BMP_temperature;BMP_pressure;BME280_temperature;BME280_humidity;BME280_pressure;Samples;Min_cycle;Max_cycle;Signal;HPM_P1;HPM_P2
2022/04/16 00:02:02;;;;;;;;;15.00;15.00;18.50;48.70;;;;;;5116521;28;8781;-60
2022/04/16 00:04:28;;;;;;;;;16.00;14.00;18.30;49.20;;;;;;5116527;28;8761;-58
2022/04/16 00:06:55;;;;;;;;;18.00;15.00;18.20;50.40;;;;;;5098175;28;8761;-60
2022/04/16 00:09:21;;;;;;;;;17.67;15.00;18.50;49.80;;;;;;5116437;28;9436;-60
2022/04/16 00:11:47;;;;;;;;;15.00;15.00;18.80;48.60;;;;;;5116429;28;8777;-60
2022/04/16 00:14:15;;;;;;;;;16.67;16.67;18.70;48.20;;;;;;5116018;28;8774;-60
2022/04/16 00:16:41;;;;;;;;;18.00;18.00;18.40;49.10;;;;;;5112583;28;8786;-60
2022/04/16 00:19:08;;;;;;;;;15.33;15.33;18.40;49.20;;;;;;5105794;28;8882;-60
2022/04/16 00:21:35;;;;;;;;;16.00;16.00;18.50;48.80;;;;;;5095193;28;8909;-60
2022/04/16 00:24:01;;;;;;;;;15.00;15.00;18.60;48.30;;;;;;5095807;28;8751;-60
2022/04/16 00:26:28;;;;;;;;;21.00;20.00;18.60;48.80;;;;;;5094964;28;8878;-60
2022/04/16 00:28:53;;;;;;;;;19.00;16.67;18.60;48.70;;;;;;5095625;28;8775;-60
2022/04/16 00:31:20;;;;;;;;;20.00;20.00;18.50;48.70;;;;;;5095277;28;9406;-59
2022/04/16 00:33:46;;;;;;;;;18.67;17.00;18.30;49.30;;;;;;5095310;28;8767;-60
2022/04/16 00:36:15;;;;;;;;;20.00;19.00;18.30;49.30;;;;;;5095414;28;8780;-60
2022/04/16 00:38:42;;;;;;;;;16.00;14.67;18.10;50.30;;;;;;5095420;28;8760;-61
2022/04/16 00:41:08;;;;;;;;;17.33;17.33;17.60;51.70;;;;;;5095217;28;8760;-60
2022/04/16 00:43:34;;;;;;;;;18.00;18.00;17.20;53.50;;;;;;5099143;27;8801;-60
2022/04/16 00:46:00;;;;;;;;;17.67;17.00;17.60;52.20;;;;;;5103849;28;8798;-60
2022/04/16 00:48:26;;;;;;;;;19.33;18.00;17.50;52.50;;;;;;5106150;28;8819;-60
2022/04/16 00:50:56;;;;;;;;;17.00;17.00;17.70;52.20;;;;;;5095161;28;8817;-60
2022/04/16 00:53:27;;;;;;;;;19.67;19.67;17.80;51.80;;;;;;5095327;28;8926;-60
2022/04/16 00:55:53;;;;;;;;;17.67;16.00;17.50;52.80;;;;;;5094910;28;8787;-60
2022/04/16 00:58:19;;;;;;;;;19.00;18.00;17.80;51.80;;;;;;5094795;28;8760;-60
2022/04/16 01:00:45;;;;;;;;;20.67;20.00;17.50;52.60;;;;;;5095011;28;8784;-60
2022/04/16 01:03:11;;;;;;;;;17.67;16.00;17.60;52.50;;;;;;5095020;28;8839;-60
2022/04/16 01:05:37;;;;;;;;;16.67;16.67;17.40;53.70;;;;;;5094745;28;8771;-60
2022/04/16 01:08:04;;;;;;;;;16.00;15.00;17.60;53.00;;;;;;5094726;28;8767;-60
2022/04/16 01:10:33;;;;;;;;;24.67;19.00;17.90;51.70;;;;;;5094751;28;8874;-60
2022/04/16 01:13:04;;;;;;;;;16.67;16.00;17.00;54.50;;;;;;5094967;28;8853;-60
2022/04/16 01:15:30;;;;;;;;;18.33;18.33;16.60;57.10;;;;;;5076846;28;8820;-60
2022/04/16 01:17:58;;;;;;;;;18.00;16.33;16.70;56.50;;;;;;5094813;28;9420;-60
2022/04/16 01:20:24;;;;;;;;;17.33;17.33;16.80;56.20;;;;;;5094821;28;8763;-60
2022/04/16 01:22:51;;;;;;;;;21.33;20.67;16.70;56.80;;;;;;5094342;28;8816;-61
2022/04/16 01:25:18;;;;;;;;;21.00;20.33;16.90;55.90;;;;;;5094544;28;8767;-60
2022/04/16 01:27:45;;;;;;;;;22.67;21.00;17.10;54.90;;;;;;5094610;28;8764;-60
2022/04/16 01:30:12;;;;;;;;;22.33;21.33;16.80;56.10;;;;;;5094613;28;8760;-60
2022/04/16 01:32:38;;;;;;;;;20.00;19.67;16.70;56.20;;;;;;5094608;28;8946;-60
2022/04/16 01:35:05;;;;;;;;;18.67;18.67;16.70;56.20;;;;;;5059948;28;8882;-60
2022/04/16 01:37:34;;;;;;;;;18.67;18.67;16.40;57.00;;;;;;5094755;28;8814;-60
2022/04/16 01:40:01;;;;;;;;;18.33;18.33;16.40;56.60;;;;;;5098684;28;8829;-60
2022/04/16 01:42:29;;;;;;;;;21.67;21.67;17.00;54.70;;;;;;5098736;28;8800;-60
2022/04/16 01:44:56;;;;;;;;;17.33;17.33;16.80;54.80;;;;;;5098813;28;8780;-60
2022/04/16 01:47:22;;;;;;;;;25.33;24.00;16.50;55.50;;;;;;5098656;28;8764;-60
2022/04/16 01:49:47;;;;;;;;;21.33;19.33;16.00;58.00;;;;;;5098666;28;8870;-61
2022/04/16 01:52:13;;;;;;;;;21.67;21.33;16.00;58.30;;;;;;5098694;28;8772;-60
2022/04/16 01:54:41;;;;;;;;;19.00;17.67;15.80;58.90;;;;;;5098346;28;8879;-60
2022/04/16 01:57:07;;;;;;;;;23.67;22.67;15.80;59.00;;;;;;5098556;28;8752;-60
2022/04/16 01:59:33;;;;;;;;;22.67;22.67;15.70;59.60;;;;;;5098541;28;8840;-60
2022/04/16 02:02:00;;;;;;;;;24.00;24.00;15.80;58.80;;;;;;5098078;28;8828;-60
2022/04/16 02:04:26;;;;;;;;;25.00;23.33;15.60;59.50;;;;;;5098424;28;9422;-60
2022/04/16 02:06:52;;;;;;;;;21.00;20.67;15.70;59.50;;;;;;5098442;28;8874;-60
2022/04/16 02:09:18;;;;;;;;;28.67;27.67;16.10;57.70;;;;;;5098258;28;8870;-60
2022/04/16 02:11:44;;;;;;;;;26.00;26.00;15.80;58.40;;;;;;5097905;28;8763;-60
2022/04/16 02:14:10;;;;;;;;;30.00;29.00;16.20;56.80;;;;;;5098160;28;8767;-64
2022/04/16 02:16:35;;;;;;;;;28.33;27.33;16.10;57.60;;;;;;5097819;28;8779;-60
2022/04/16 02:19:01;;;;;;;;;28.33;28.33;15.90;58.00;;;;;;5097934;28;8756;-60
2022/04/16 02:21:27;;;;;;;;;26.00;26.00;15.50;59.90;;;;;;5097769;28;8810;-60
2022/04/16 02:23:54;;;;;;;;;26.33;25.00;15.30;61.20;;;;;;5098047;28;8751;-61
2022/04/16 02:26:22;;;;;;;;;26.00;25.67;15.40;61.10;;;;;;5097971;28;8759;-61
2022/04/16 02:28:48;;;;;;;;;22.67;22.67;15.70;59.80;;;;;;5097967;28;8763;-61
2022/04/16 02:31:14;;;;;;;;;26.00;25.33;15.40;61.60;;;;;;5097566;28;8856;-61
2022/04/16 02:33:40;;;;;;;;;24.00;23.67;15.40;62.20;;;;;;5097924;28;8872;-61
2022/04/16 02:36:07;;;;;;;;;28.00;27.00;15.20;63.50;;;;;;5097737;28;8756;-61
2022/04/16 02:38:34;;;;;;;;;26.00;25.00;15.30;63.20;;;;;;5097783;28;8794;-61
2022/04/16 02:40:59;;;;;;;;;26.67;25.00;15.30;63.90;;;;;;5097456;28;8764;-60
2022/04/16 02:43:25;;;;;;;;;22.33;22.33;15.30;64.50;;;;;;5097539;28;8805;-60
2022/04/16 02:48:35;;;;;;;;;25.33;23.67;15.00;66.60;;;;;;5097468;28;8732;-60
2022/04/16 02:51:02;;;;;;;;;21.67;21.67;14.80;68.70;;;;;;5096497;28;8810;-60
2022/04/16 02:53:29;;;;;;;;;22.67;22.00;14.50;71.00;;;;;;5097466;28;9479;-60
2022/04/16 02:55:55;;;;;;;;;25.33;22.67;14.50;72.40;;;;;;5097158;28;8886;-60
2022/04/16 02:58:22;;;;;;;;;22.33;22.00;14.60;72.50;;;;;;5097114;28;8901;-60
2022/04/16 03:00:48;;;;;;;;;28.00;24.67;14.50;73.80;;;;;;5097064;28;8763;-60
2022/04/16 03:03:15;;;;;;;;;24.00;24.00;14.70;72.20;;;;;;5096879;28;8839;-60
2022/04/16 03:05:41;;;;;;;;;28.33;26.33;14.40;74.40;;;;;;5097183;28;8775;-60
2022/04/16 03:08:09;;;;;;;;;24.67;19.33;14.40;75.00;;;;;;5096944;28;8784;-60
2022/04/16 03:10:35;;;;;;;;;25.33;25.00;14.60;73.70;;;;;;5097121;28;8786;-60
2022/04/16 03:13:01;;;;;;;;;25.33;24.33;14.60;73.30;;;;;;5096930;28;8764;-60
2022/04/16 03:18:12;;;;;;;;;29.33;26.00;14.60;74.30;;;;;;5096883;28;8740;-60
2022/04/16 03:20:40;;;;;;;;;20.33;20.33;14.60;75.30;;;;;;5096693;28;8870;-60
2022/04/16 03:23:06;;;;;;;;;23.33;22.00;14.60;75.40;;;;;;5096835;28;8822;-60
2022/04/16 03:25:32;;;;;;;;;24.67;21.00;14.50;76.60;;;;;;5096838;28;8756;-61
2022/04/16 03:27:58;;;;;;;;;23.33;20.33;14.80;74.30;;;;;;5096461;28;8763;-60
2022/04/16 03:30:25;;;;;;;;;25.00;24.00;14.70;74.30;;;;;;5096467;28;8764;-60
2022/04/16 03:32:52;;;;;;;;;24.33;23.67;14.50;76.40;;;;;;5096812;28;8856;-60
2022/04/16 03:35:19;;;;;;;;;25.67;25.33;14.30;79.10;;;;;;5096644;28;8802;-60
2022/04/16 03:37:45;;;;;;;;;23.67;23.00;14.50;77.80;;;;;;5096669;28;8882;-60
2022/04/16 03:40:12;;;;;;;;;24.67;21.33;14.30;80.30;;;;;;5111230;27;8788;-60
2022/04/16 03:42:46;;;;;;;;;25.33;23.67;14.10;82.30;;;;;;5103509;28;8916;-60
2022/04/16 03:45:28;;;;;;;;;27.33;26.33;13.80;90.30;;;;;;5116916;28;8745;-60
2022/04/16 03:47:55;;;;;;;;;26.67;24.00;14.00;88.30;;;;;;5096443;28;8844;-60
2022/04/16 03:50:22;;;;;;;;;27.00;26.67;14.00;88.40;;;;;;5096402;28;8763;-60
2022/04/16 03:52:50;;;;;;;;;25.00;24.67;14.00;88.20;;;;;;5096381;28;8894;-60
2022/04/16 04:00:52;;;;;;;;;26.67;25.67;14.20;87.10;;;;;;5095470;28;8720;-60
2022/04/16 04:03:19;;;;;;;;;24.67;23.33;14.30;84.10;;;;;;5095203;28;8834;-60
2022/04/16 04:05:45;;;;;;;;;30.50;26.75;14.30;84.20;;;;;;5095828;28;8768;-60
2022/04/16 04:08:11;;;;;;;;;20.67;20.00;14.50;83.00;;;;;;5096098;28;8768;-60
2022/04/16 04:10:38;;;;;;;;;25.00;24.33;14.70;80.10;;;;;;5095685;28;8901;-60
2022/04/16 04:13:04;;;;;;;;;32.00;27.33;14.60;81.10;;;;;;5095874;28;8767;-60
2022/04/16 04:15:30;;;;;;;;;29.33;29.33;14.60;81.70;;;;;;5095849;28;8755;-60
2022/04/16 04:17:57;;;;;;;;;30.75;30.00;14.50;83.20;;;;;;5095884;28;8817;-60
2022/04/16 04:20:23;;;;;;;;;29.50;29.50;14.60;83.20;;;;;;5095457;28;8794;-60
2022/04/16 04:22:49;;;;;;;;;25.50;24.75;14.50;84.40;;;;;;5104208;28;8825;-59
2022/04/16 04:25:15;;;;;;;;;28.75;28.75;14.40;86.70;;;;;;5104192;28;8769;-59
2022/04/16 04:27:40;;;;;;;;;24.67;24.67;14.30;90.00;;;;;;5109939;28;9441;-60
2022/04/16 04:30:07;;;;;;;;;26.25;25.25;14.30;92.10;;;;;;5077365;28;8809;-60
2022/04/16 04:32:32;;;;;;;;;28.75;27.75;14.30;92.30;;;;;;5095379;28;8839;-60
2022/04/16 04:34:58;;;;;;;;;27.50;26.25;14.30;92.20;;;;;;5095540;28;8767;-60
2022/04/16 04:37:24;;;;;;;;;28.75;26.00;14.10;97.60;;;;;;5095188;28;9455;-60
2022/04/16 04:39:50;;;;;;;;;29.25;28.25;14.10;98.60;;;;;;5112129;27;8790;-59
2022/04/16 04:42:28;;;;;;;;;29.25;27.50;14.00;99.90;;;;;;5096920;28;8818;-59
2022/04/16 04:44:54;;;;;;;;;32.75;31.00;13.80;99.90;;;;;;5108947;28;8786;-60
2022/04/16 04:47:21;;;;;;;;;24.25;23.25;13.90;99.90;;;;;;5115425;28;8811;-60
2022/04/16 04:49:47;;;;;;;;;26.00;26.00;14.20;99.90;;;;;;5115652;28;9574;-59
2022/04/16 04:52:29;;;;;;;;;31.50;31.00;14.10;99.90;;;;;;5115682;28;8884;-62
2022/04/16 04:55:00;;;;;;;;;30.25;29.50;14.10;99.90;;;;;;5115555;28;8754;-61
2022/04/16 04:57:26;;;;;;;;;30.25;30.00;14.30;99.90;;;;;;5115535;28;8746;-60
2022/04/16 04:59:52;;;;;;;;;30.50;29.00;14.10;99.90;;;;;;5115241;28;8858;-60
2022/04/16 05:02:18;;;;;;;;;35.50;32.50;13.90;99.90;;;;;;5115256;28;8821;-60
2022/04/16 05:04:44;;;;;;;;;32.25;31.25;14.10;99.90;;;;;;5115411;28;8777;-61
2022/04/16 05:07:10;;;;;;;;;36.00;32.50;14.30;99.90;;;;;;5115072;28;8770;-60
2022/04/16 05:09:37;;;;;;;;;31.25;29.75;14.10;99.90;;;;;;5115307;28;8761;-60
2022/04/16 05:12:03;;;;;;;;;31.25;31.00;14.30;99.90;;;;;;5114950;28;9453;-59
2022/04/16 05:14:29;;;;;;;;;35.25;30.00;14.50;99.60;;;;;;5114776;28;8749;-61
2022/04/16 05:16:55;;;;;;;;;38.50;33.75;14.60;93.20;;;;;;5115005;28;8868;-60
2022/04/16 05:19:22;;;;;;;;;33.50;31.25;14.40;99.90;;;;;;5115050;28;8846;-60
2022/04/16 05:21:47;;;;;;;;;34.00;31.25;14.50;97.70;;;;;;5112953;28;8821;-60
2022/04/16 05:24:14;;;;;;;;;33.25;30.25;14.70;92.60;;;;;;5115180;28;9473;-60
2022/04/16 05:26:40;;;;;;;;;36.25;32.75;14.30;99.90;;;;;;5114924;28;8761;-59
2022/04/16 05:29:07;;;;;;;;;37.25;34.25;14.30;99.90;;;;;;5114646;28;8757;-60
2022/04/16 05:31:33;;;;;;;;;36.50;33.25;14.50;99.90;;;;;;5102424;28;9525;-60
2022/04/16 05:36:45;;;;;;;;;38.25;32.00;14.40;99.90;;;;;;5094506;28;8748;-60
2022/04/16 05:39:11;;;;;;;;;34.25;32.50;14.10;99.90;;;;;;5094551;28;8882;-61
2022/04/16 05:41:37;;;;;;;;;28.25;28.25;14.00;99.90;;;;;;5094379;28;8839;-60
2022/04/16 05:44:04;;;;;;;;;29.75;27.50;13.80;99.90;;;;;;5106014;28;8776;-61
2022/04/16 05:46:31;;;;;;;;;32.50;31.00;14.30;99.90;;;;;;5108175;28;8898;-60
2022/04/16 05:48:57;;;;;;;;;33.00;32.00;14.20;99.90;;;;;;5094305;28;8782;-60
2022/04/16 05:51:25;;;;;;;;;32.67;29.67;14.20;99.90;;;;;;5119588;27;9605;-60
2022/04/16 05:53:52;;;;;;;;;27.75;27.75;14.40;99.90;;;;;;5135270;27;8756;-58
2022/04/16 05:56:19;;;;;;;;;30.00;29.00;14.40;99.90;;;;;;5135245;27;8768;-60
2022/04/16 05:58:46;;;;;;;;;32.00;31.33;14.60;97.50;;;;;;5135399;27;8768;-60
2022/04/16 06:01:13;;;;;;;;;38.67;35.00;14.60;98.70;;;;;;5135127;27;8858;-61
2022/04/16 06:03:39;;;;;;;;;33.67;32.33;15.10;91.60;;;;;;5107622;28;8838;-60
2022/04/16 06:06:06;;;;;;;;;36.67;33.67;15.10;90.20;;;;;;5097827;28;8770;-60
2022/04/16 06:08:32;;;;;;;;;36.00;31.67;14.90;90.70;;;;;;5112225;27;8854;-60
2022/04/16 06:10:58;;;;;;;;;35.25;32.50;14.50;96.20;;;;;;5134731;27;8775;-60
2022/04/16 06:13:24;;;;;;;;;28.67;27.67;14.30;99.90;;;;;;5134839;27;8771;-66
2022/04/16 06:15:49;;;;;;;;;29.00;28.00;14.50;99.80;;;;;;5106265;28;8787;-59
2022/04/16 06:18:15;;;;;;;;;36.75;33.50;14.50;99.90;;;;;;5094292;28;8872;-55
2022/04/16 06:20:41;;;;;;;;;32.00;30.00;14.60;96.60;;;;;;5093902;28;8776;-59
2022/04/16 06:23:07;;;;;;;;;29.00;28.33;14.80;92.40;;;;;;5094178;28;8792;-57
2022/04/16 06:25:33;;;;;;;;;31.67;29.33;15.10;84.10;;;;;;5096240;28;8767;-58
2022/04/16 06:28:00;;;;;;;;;29.00;29.00;14.60;88.90;;;;;;5097726;28;9521;-58
2022/04/16 06:30:27;;;;;;;;;31.00;29.00;14.30;90.50;;;;;;5097978;28;8798;-58
2022/04/16 06:32:53;;;;;;;;;33.33;31.67;14.50;91.30;;;;;;5097874;28;9589;-59
2022/04/16 06:35:19;;;;;;;;;32.67;30.67;14.90;84.30;;;;;;5097543;28;8852;-58
2022/04/16 06:37:44;;;;;;;;;32.33;29.00;14.80;84.40;;;;;;5097491;28;8775;-58
2022/04/16 06:40:11;;;;;;;;;26.67;25.00;14.80;81.70;;;;;;5097745;28;8768;-58
2022/04/16 06:42:38;;;;;;;;;26.67;26.67;14.70;82.50;;;;;;5097606;28;8922;-58
2022/04/16 06:45:09;;;;;;;;;26.33;26.00;14.70;82.40;;;;;;5097707;28;8763;-59
2022/04/16 06:47:35;;;;;;;;;37.67;33.33;15.20;78.50;;;;;;5097646;28;8855;-59
2022/04/16 06:50:02;;;;;;;;;28.67;26.67;15.30;76.10;;;;;;5097569;28;8772;-58
2022/04/16 06:52:28;;;;;;;;;28.00;28.00;14.90;78.60;;;;;;5097232;28;8778;-58
2022/04/16 06:54:57;;;;;;;;;27.67;27.00;14.60;80.90;;;;;;5097252;28;8776;-59
2022/04/16 06:57:23;;;;;;;;;30.00;28.33;14.30;86.70;;;;;;5097404;28;8882;-59
2022/04/16 06:59:49;;;;;;;;;30.67;26.33;14.80;81.50;;;;;;5097152;28;9414;-59
2022/04/16 07:02:16;;;;;;;;;35.67;31.33;14.60;82.70;;;;;;5096987;28;8815;-60
2022/04/16 07:04:41;;;;;;;;;30.00;29.00;15.10;79.00;;;;;;5097088;28;8760;-59
2022/04/16 07:07:10;;;;;;;;;28.67;28.33;15.20;76.30;;;;;;5097136;28;8748;-59
2022/04/16 07:09:40;;;;;;;;;29.33;27.67;14.90;75.10;;;;;;5097105;28;8752;-59
2022/04/16 07:12:10;;;;;;;;;27.33;26.00;14.70;77.80;;;;;;5097125;28;9455;-59
2022/04/16 07:14:40;;;;;;;;;35.00;33.00;14.60;77.30;;;;;;5097021;28;8759;-60
2022/04/16 07:17:07;;;;;;;;;25.00;25.00;14.90;74.50;;;;;;5096931;28;8748;-61
2022/04/16 07:19:34;;;;;;;;;28.33;24.67;14.50;77.60;;;;;;5097060;28;8771;-59
2022/04/16 07:22:00;;;;;;;;;28.67;28.33;14.30;81.20;;;;;;5096427;28;9421;-59
2022/04/16 07:24:26;;;;;;;;;28.00;26.67;14.20;81.00;;;;;;5096929;28;8772;-59
2022/04/16 07:26:54;;;;;;;;;24.00;24.00;14.10;82.70;;;;;;5096934;28;8774;-60
2022/04/16 07:29:24;;;;;;;;;27.33;25.67;14.10;82.00;;;;;;5096590;28;8752;-65
2022/04/16 07:31:50;;;;;;;;;27.00;27.00;14.20;80.50;;;;;;5096774;28;8807;-60
2022/04/16 07:34:16;;;;;;;;;35.00;30.67;13.90;83.00;;;;;;5096769;28;8839;-60
2022/04/16 07:36:42;;;;;;;;;30.00;29.00;14.30;79.40;;;;;;5096120;28;8784;-63
2022/04/16 07:39:09;;;;;;;;;27.00;24.33;14.00;79.50;;;;;;5096322;28;8767;-67
2022/04/16 07:41:34;;;;;;;;;30.33;27.67;13.60;82.70;;;;;;5096282;27;9424;-57
2022/04/16 07:44:03;;;;;;;;;23.33;23.33;13.50;80.90;;;;;;5096712;28;8779;-57
2022/04/16 07:46:33;;;;;;;;;30.00;28.33;13.90;78.20;;;;;;5096466;28;8870;-62
2022/04/16 07:48:59;;;;;;;;;29.50;27.00;14.30;74.40;;;;;;5096395;28;8767;-60
2022/04/16 07:51:26;;;;;;;;;27.75;27.25;14.70;71.20;;;;;;5096085;28;8791;-60
2022/04/16 07:53:58;;;;;;;;;30.25;30.00;14.90;69.70;;;;;;5095893;28;8752;-60
2022/04/16 07:56:24;;;;;;;;;31.00;29.00;14.20;74.50;;;;;;5095901;28;8880;-59
2022/04/16 07:58:50;;;;;;;;;27.00;27.00;14.50;74.50;;;;;;5095951;28;8879;-59
2022/04/16 08:01:17;;;;;;;;;32.67;29.67;14.10;74.30;;;;;;5096170;28;8832;-59
2022/04/16 08:03:43;;;;;;;;;26.67;25.33;14.20;75.00;;;;;;5096133;28;8827;-59
2022/04/16 08:06:08;;;;;;;;;30.25;29.25;14.30;75.30;;;;;;5095623;28;8764;-60
2022/04/16 08:08:34;;;;;;;;;30.33;29.33;14.40;73.50;;;;;;5095822;28;8776;-59
2022/04/16 08:11:00;;;;;;;;;26.67;25.33;14.20;74.40;;;;;;5095970;28;8768;-59
2022/04/16 08:13:26;;;;;;;;;27.67;27.67;14.20;74.50;;;;;;5095973;28;8783;-59
2022/04/16 08:15:51;;;;;;;;;30.00;29.33;14.10;75.40;;;;;;5095849;28;8786;-59
2022/04/16 08:18:18;;;;;;;;;30.00;28.00;14.10;76.80;;;;;;5095644;28;8785;-59
2022/04/16 08:20:44;;;;;;;;;26.50;26.00;13.90;77.90;;;;;;5095361;28;8780;-58
2022/04/16 08:23:11;;;;;;;;;26.50;26.50;14.20;76.30;;;;;;5095640;28;8861;-59
2022/04/16 08:28:04;;;;;;;;;30.00;27.33;14.10;73.70;;;;;;5095515;28;8776;-59
2022/04/16 08:30:31;;;;;;;;;30.25;25.75;14.00;75.30;;;;;;5095676;28;9441;-59
2022/04/16 08:32:57;;;;;;;;;24.33;22.33;14.20;74.40;;;;;;5095690;28;8788;-59
2022/04/16 08:35:23;;;;;;;;;27.33;25.33;14.40;72.50;;;;;;5095568;28;8772;-59
2022/04/16 08:37:50;;;;;;;;;26.67;25.00;14.30;74.50;;;;;;5095306;28;9437;-59
2022/04/16 08:40:17;;;;;;;;;30.67;29.33;14.00;75.70;;;;;;5095200;28;8760;-60
2022/04/16 08:42:45;;;;;;;;;27.50;25.25;14.10;75.70;;;;;;5095024;28;8839;-60
2022/04/16 08:45:12;;;;;;;;;25.00;23.00;14.20;75.20;;;;;;5095218;28;8760;-60
2022/04/16 08:47:39;;;;;;;;;30.67;28.33;14.50;74.20;;;;;;5094754;28;8795;-60
2022/04/16 08:50:07;;;;;;;;;29.33;28.67;14.70;72.30;;;;;;5095336;28;8740;-61
2022/04/16 08:52:36;;;;;;;;;31.00;30.00;14.50;73.70;;;;;;5094988;28;8811;-62
2022/04/16 08:55:04;;;;;;;;;35.33;29.67;14.50;73.70;;;;;;5094993;28;8767;-62
2022/04/16 08:57:30;;;;;;;;;31.75;30.75;14.40;73.30;;;;;;5094818;28;8752;-62
2022/04/16 08:59:57;;;;;;;;;30.75;29.50;14.40;72.80;;;;;;5094716;28;8863;-62
2022/04/16 09:02:25;;;;;;;;;35.00;31.00;14.90;70.30;;;;;;5094777;28;8941;-61
2022/04/16 09:05:06;;;;;;;;;28.50;27.00;14.90;68.80;;;;;;5095025;28;8764;-62
2022/04/16 09:07:43;;;;;;;;;29.75;28.75;15.00;67.30;;;;;;5095037;28;8748;-62
2022/04/16 09:10:09;;;;;;;;;30.00;28.33;15.50;66.30;;;;;;5094857;28;9476;-62
2022/04/16 09:12:39;;;;;;;;;29.67;29.67;15.80;65.90;;;;;;5094714;28;8776;-59
2022/04/16 09:15:10;;;;;;;;;26.00;25.33;15.70;64.90;;;;;;5094774;28;8755;-59
2022/04/16 09:17:37;;;;;;;;;26.00;26.00;15.70;63.60;;;;;;5094672;28;9409;-60
2022/04/16 09:20:08;;;;;;;;;28.00;26.33;15.60;63.50;;;;;;5094503;28;8791;-60
2022/04/16 09:22:36;;;;;;;;;27.33;24.67;15.80;61.90;;;;;;5110136;28;8831;-59
2022/04/16 09:25:04;;;;;;;;;28.00;25.67;15.60;63.20;;;;;;5094734;28;9472;-60
2022/04/16 09:27:49;;;;;;;;;22.33;22.33;15.90;61.80;;;;;;5094793;28;8870;-60
2022/04/16 09:30:30;;;;;;;;;25.00;25.00;16.10;61.40;;;;;;5093920;27;8751;-59
2022/04/16 09:32:57;;;;;;;;;27.00;22.00;16.50;60.30;;;;;;5094683;28;8902;-60
2022/04/16 09:35:33;;;;;;;;;26.00;24.33;16.60;59.40;;;;;;5094175;28;8764;-65
2022/04/16 09:38:00;;;;;;;;;24.00;24.00;16.50;60.20;;;;;;5094390;28;8820;-60
2022/04/16 09:40:33;;;;;;;;;24.33;24.33;16.50;58.70;;;;;;5094418;28;8809;-60
2022/04/16 09:43:02;;;;;;;;;21.33;21.33;16.70;57.70;;;;;;5094556;28;8853;-60
2022/04/16 09:45:31;;;;;;;;;22.67;20.00;16.70;56.10;;;;;;5094342;28;8760;-60
2022/04/16 09:47:58;;;;;;;;;27.33;27.33;17.10;56.30;;;;;;5094490;28;8786;-63
2022/04/16 09:50:27;;;;;;;;;16.67;16.67;17.90;54.00;;;;;;5093937;28;8845;-60
2022/04/16 09:52:58;;;;;;;;;23.33;23.33;18.10;52.70;;;;;;5094624;28;8783;-60
2022/04/16 09:55:28;;;;;;;;;27.67;25.33;17.70;52.90;;;;;;5094303;28;8787;-60
2022/04/16 09:58:02;;;;;;;;;21.67;21.67;17.30;53.90;;;;;;5094475;28;9471;-60
2022/04/16 10:00:28;;;;;;;;;25.33;23.33;17.10;55.20;;;;;;5098128;28;8778;-60
2022/04/16 10:02:55;;;;;;;;;24.33;23.00;17.10;55.50;;;;;;5098383;28;8817;-65
2022/04/16 10:05:22;;;;;;;;;22.67;20.33;16.90;54.50;;;;;;5097882;28;8759;-60
2022/04/16 10:07:48;;;;;;;;;22.00;20.67;17.40;53.60;;;;;;5080209;28;8859;-60
2022/04/16 10:10:17;;;;;;;;;21.00;20.00;17.40;53.20;;;;;;5098129;28;8748;-59
2022/04/16 10:13:00;;;;;;;;;20.67;20.67;17.10;53.90;;;;;;5097992;28;9414;-60
2022/04/16 10:15:49;;;;;;;;;20.67;19.67;17.20;54.60;;;;;;5098015;28;9397;-60
2022/04/16 10:18:16;;;;;;;;;19.00;18.00;17.50;53.30;;;;;;5089490;28;8853;-60
2022/04/16 10:21:04;;;;;;;;;16.67;15.67;17.60;52.30;;;;;;5097971;28;8770;-60
2022/04/16 10:23:36;;;;;;;;;11.00;8.00;17.50;50.40;;;;;;5098058;28;8815;-59
2022/04/16 10:26:06;;;;;;;;;18.00;16.33;17.70;48.40;;;;;;5098064;28;8785;-60
2022/04/16 10:28:37;;;;;;;;;17.00;14.00;18.60;46.70;;;;;;5097729;28;8767;-60
2022/04/16 10:31:03;;;;;;;;;14.33;14.33;18.40;46.00;;;;;;5097800;28;8783;-60
2022/04/16 10:33:31;;;;;;;;;14.33;13.33;18.40;45.20;;;;;;5097521;28;8952;-60
2022/04/16 10:36:03;;;;;;;;;13.00;12.00;18.10;45.40;;;;;;5111195;27;8766;-60
2022/04/16 10:38:34;;;;;;;;;17.00;15.67;18.20;46.30;;;;;;5118181;28;8745;-60
2022/04/16 10:41:02;;;;;;;;;14.33;13.67;18.60;47.00;;;;;;5117955;28;8850;-60
2022/04/16 10:43:33;;;;;;;;;14.00;14.00;18.50;44.80;;;;;;5117902;28;8893;-60
2022/04/16 10:46:07;;;;;;;;;14.67;14.67;18.20;45.80;;;;;;5117888;28;8860;-60
2022/04/16 10:48:38;;;;;;;;;11.33;11.00;18.40;46.30;;;;;;5118034;28;8949;-59
2022/04/16 10:51:08;;;;;;;;;12.33;12.00;19.10;46.10;;;;;;5117394;28;8749;-60
2022/04/16 10:53:38;;;;;;;;;17.33;15.00;19.60;43.60;;;;;;5117839;28;9435;-60
2022/04/16 10:56:11;;;;;;;;;16.33;14.33;19.00;42.60;;;;;;5117511;28;8776;-60
2022/04/16 10:58:39;;;;;;;;;14.00;12.00;19.30;43.00;;;;;;5117634;28;9432;-59
2022/04/16 11:01:07;;;;;;;;;13.33;13.33;19.60;43.00;;;;;;5117565;28;9443;-60
2022/04/16 11:03:41;;;;;;;;;13.33;12.67;19.80;41.80;;;;;;5117284;28;9236;-60
2022/04/16 11:06:10;;;;;;;;;17.67;17.33;19.40;41.10;;;;;;5117159;28;8756;-60
2022/04/16 11:08:41;;;;;;;;;13.67;13.67;19.20;42.10;;;;;;5117261;28;8762;-60
2022/04/16 11:11:07;;;;;;;;;12.33;12.33;18.80;42.50;;;;;;5116765;28;8757;-60
2022/04/16 11:13:35;;;;;;;;;8.33;7.33;19.30;42.80;;;;;;5117430;28;8802;-60
2022/04/16 11:16:01;;;;;;;;;11.67;11.67;19.30;41.60;;;;;;5117301;28;8775;-60
2022/04/16 11:18:43;;;;;;;;;13.00;12.67;19.50;42.30;;;;;;5117133;28;8749;-62
2022/04/16 11:21:29;;;;;;;;;9.33;9.33;19.40;40.90;;;;;;5116599;28;8769;-59
2022/04/16 11:23:55;;;;;;;;;9.33;9.33;19.80;42.50;;;;;;5117099;28;8797;-62
2022/04/16 11:34:44;;;;;;;;;9.33;9.33;20.10;38.00;;;;;;5116214;28;11346;-60
2022/04/16 11:37:10;;;;;;;;;8.00;8.00;20.90;39.20;;;;;;5117121;28;11403;-60
2022/04/16 11:39:36;;;;;;;;;9.33;9.33;20.80;37.90;;;;;;5116471;28;8808;-69
2022/04/16 11:42:09;;;;;;;;;8.00;8.00;20.70;38.00;;;;;;5116579;28;8790;-60
2022/04/16 11:44:45;;;;;;;;;10.00;10.00;20.30;38.10;;;;;;5116725;28;12078;-59
2022/04/16 11:47:12;;;;;;;;;10.33;10.33;19.70;39.30;;;;;;5116925;28;9360;-59
2022/04/16 11:49:49;;;;;;;;;10.33;10.33;19.80;40.80;;;;;;5115411;28;11529;-59
2022/04/16 11:52:15;;;;;;;;;8.00;8.00;20.40;39.20;;;;;;5115769;28;11417;-66
2022/04/16 11:54:41;;;;;;;;;9.00;9.00;21.00;37.00;;;;;;5116116;28;11483;-61
2022/04/16 11:57:07;;;;;;;;;10.67;10.00;21.70;37.20;;;;;;5116444;28;12079;-60
2022/04/16 11:59:34;;;;;;;;;12.00;10.67;21.70;35.00;;;;;;5116104;28;11387;-60
2022/04/16 12:02:07;;;;;;;;;12.00;12.00;20.90;36.70;;;;;;5115770;28;11475;-60
2022/04/16 12:04:33;;;;;;;;;12.67;12.67;19.80;38.80;;;;;;5116201;28;8767;-60
2022/04/16 12:06:59;;;;;;;;;11.00;11.00;19.40;40.70;;;;;;5116221;28;8758;-60
2022/04/16 12:09:25;;;;;;;;;16.67;15.33;19.60;41.50;;;;;;5116172;28;8781;-60
2022/04/16 12:11:55;;;;;;;;;13.00;12.00;19.40;40.50;;;;;;5116345;28;8796;-61
2022/04/16 12:14:23;;;;;;;;;11.33;11.33;18.90;40.90;;;;;;5116289;28;8817;-60
2022/04/16 12:17:00;;;;;;;;;13.33;11.67;19.10;40.80;;;;;;5098213;28;8783;-60
2022/04/16 12:19:35;;;;;;;;;10.00;10.00;19.30;40.30;;;;;;5112623;28;8774;-59
2022/04/16 12:22:01;;;;;;;;;11.00;11.00;19.30;39.70;;;;;;5115246;28;8886;-58
2022/04/16 12:24:29;;;;;;;;;8.33;8.33;19.40;39.70;;;;;;5115785;28;8769;-58
2022/04/16 12:26:56;;;;;;;;;7.33;7.33;19.40;38.70;;;;;;5115851;28;8774;-58
2022/04/16 12:29:31;;;;;;;;;9.67;9.00;19.50;38.30;;;;;;5115912;28;11390;-59
2022/04/16 12:31:59;;;;;;;;;10.67;10.00;20.70;37.60;;;;;;5115805;28;12113;-58
2022/04/16 12:34:27;;;;;;;;;11.33;10.00;21.80;37.00;;;;;;5115664;28;11404;-57
2022/04/16 12:36:53;;;;;;;;;9.50;9.50;22.30;34.00;;;;;;5115818;28;11384;-58
2022/04/16 12:39:19;;;;;;;;;9.00;8.25;21.40;35.50;;;;;;5114071;28;11329;-57
2022/04/16 12:41:45;;;;;;;;;9.00;9.00;21.10;37.30;;;;;;5115306;28;12122;-59
2022/04/16 12:44:11;;;;;;;;;8.00;8.00;20.70;37.20;;;;;;5115765;28;8802;-58
2022/04/16 12:46:37;;;;;;;;;9.00;9.00;23.70;34.50;;;;;;5115644;28;8753;-60
2022/04/16 12:49:02;;;;;;;;;6.50;6.50;30.40;27.70;;;;;;5115251;28;11548;-60
2022/04/16 12:51:28;;;;;;;;;6.00;6.00;28.50;25.70;;;;;;5115343;28;8774;-60
2022/04/16 12:53:54;;;;;;;;;7.50;7.50;29.70;24.90;;;;;;5115538;28;8893;-59
2022/04/16 12:56:19;;;;;;;;;9.00;9.00;25.20;27.70;;;;;;5115192;28;8766;-60
2022/04/16 12:58:45;;;;;;;;;4.50;4.50;27.40;27.80;;;;;;5115336;28;8746;-60
2022/04/16 13:01:11;;;;;;;;;5.00;5.00;24.50;28.80;;;;;;5114013;28;8820;-58
2022/04/16 13:03:37;;;;;;;;;6.00;6.00;22.80;30.80;;;;;;5111355;28;9444;-60
2022/04/16 13:06:02;;;;;;;;;5.75;5.75;21.20;33.70;;;;;;5114229;28;8766;-58